createdAt,value
2022-09-23T00:01:15.189Z,13.61
2022-09-23T00:03:43.333Z,13.65
2022-09-23T00:06:12.684Z,13.68
2022-09-23T00:08:40.504Z,13.63
2022-09-23T00:11:12.761Z,13.71
2022-09-23T00:13:40.901Z,13.72
2022-09-23T00:16:09.764Z,13.71
2022-09-23T00:18:36.711Z,13.56
2022-09-23T00:21:08.358Z,13.58
2022-09-23T00:23:34.928Z,13.51
2022-09-23T00:26:03.344Z,13.52
2022-09-23T00:28:30.858Z,13.56
2022-09-23T00:31:01.734Z,13.61
2022-09-23T00:33:29.915Z,13.45
2022-09-23T00:36:01.595Z,13.53
2022-09-23T00:38:28.641Z,13.46
2022-09-23T00:40:55.594Z,13.52
2022-09-23T00:43:54.921Z,13.54
2022-09-23T00:46:40.224Z,13.53
2022-09-23T00:49:10.919Z,13.61
2022-09-23T00:51:40.461Z,13.57
2022-09-23T00:54:07.237Z,13.43
2022-09-23T00:56:35.017Z,13.46
2022-09-23T00:59:02.137Z,13.50
2022-09-23T01:01:28.936Z,13.48
2022-09-23T01:03:56.407Z,13.49
2022-09-23T01:06:23.113Z,13.46
2022-09-23T01:08:49.958Z,13.38
2022-09-23T01:11:28.616Z,13.40
2022-09-23T01:14:13.864Z,13.37
2022-09-23T01:17:16.575Z,13.43
2022-09-23T01:20:03.406Z,13.43
2022-09-23T01:22:29.957Z,13.44
2022-09-23T01:25:15.160Z,13.57
2022-09-23T01:28:17.315Z,13.63
2022-09-23T01:30:52.979Z,13.59
2022-09-23T01:33:26.311Z,13.49
2022-09-23T01:36:01.224Z,13.30
2022-09-23T01:38:50.143Z,13.31
2022-09-23T01:41:29.324Z,13.36
2022-09-23T01:44:34.990Z,13.32
2022-09-23T01:47:17.412Z,13.38
2022-09-23T01:50:24.626Z,13.36
2022-09-23T01:52:53.580Z,13.43
2022-09-23T01:55:28.599Z,13.39
2022-09-23T01:58:16.326Z,13.36
2022-09-23T02:00:53.220Z,13.36
2022-09-23T02:03:32.481Z,13.27
2022-09-23T02:06:03.795Z,13.30
2022-09-23T02:08:38.508Z,13.23
2022-09-23T02:11:15.375Z,13.25
2022-09-23T02:13:50.607Z,13.14
2022-09-23T02:16:25.618Z,13.13
2022-09-23T02:19:02.746Z,13.06
2022-09-23T02:21:58.980Z,13.06
2022-09-23T02:24:30.938Z,13.06
2022-09-23T02:27:18.513Z,13.08
2022-09-23T02:29:45.047Z,13.16
2022-09-23T02:32:42.952Z,13.24
2022-09-23T02:35:33.259Z,13.34
2022-09-23T02:37:59.918Z,13.20
2022-09-23T02:40:46.114Z,13.21
2022-09-23T02:43:17.787Z,13.29
2022-09-23T02:45:44.972Z,13.33
2022-09-23T02:48:20.435Z,13.17
2022-09-23T02:50:47.856Z,13.19
2022-09-23T02:53:16.253Z,13.22
2022-09-23T02:55:42.994Z,13.30
2022-09-23T02:58:10.399Z,13.38
2022-09-23T03:00:52.766Z,13.25
2022-09-23T03:04:06.846Z,13.30
2022-09-23T03:06:56.096Z,13.24
2022-09-23T03:09:26.318Z,13.14
2022-09-23T03:12:16.867Z,13.14
2022-09-23T03:15:24.061Z,13.10
2022-09-23T03:18:12.249Z,13.09
2022-09-23T03:20:46.356Z,13.08
2022-09-23T03:23:15.311Z,13.13
2022-09-23T03:25:44.752Z,13.18
2022-09-23T03:28:12.093Z,13.18
2022-09-23T03:30:39.569Z,13.20
2022-09-23T03:33:08.259Z,13.16
2022-09-23T03:35:57.402Z,13.22
2022-09-23T03:38:26.269Z,13.21
2022-09-23T03:40:54.944Z,13.24
2022-09-23T03:43:21.649Z,13.29
2022-09-23T03:45:48.293Z,13.33
2022-09-23T03:48:15.786Z,13.32
2022-09-23T03:50:42.570Z,13.36
2022-09-23T03:53:09.195Z,13.19
2022-09-23T03:55:36.179Z,13.15
2022-09-23T03:58:03.347Z,13.14
2022-09-23T04:00:29.935Z,13.06
2022-09-23T04:02:57.296Z,13.06
2022-09-23T04:05:23.850Z,13.00
2022-09-23T04:07:51.334Z,12.89
2022-09-23T04:10:18.027Z,12.90
2022-09-23T04:12:44.614Z,12.78
2022-09-23T04:20:59.896Z,12.63
2022-09-23T04:23:27.356Z,12.63
2022-09-23T04:25:54.307Z,12.64
2022-09-23T04:28:21.981Z,12.55
2022-09-23T04:30:49.168Z,12.53
2022-09-23T04:33:16.476Z,12.59
2022-09-23T04:35:43.662Z,12.58
2022-09-23T04:38:13.462Z,12.59
2022-09-23T04:40:40.359Z,12.55
2022-09-23T04:43:10.510Z,12.52
2022-09-23T04:45:39.728Z,12.48
2022-09-23T04:48:06.297Z,12.61
2022-09-23T04:50:33.963Z,12.69
2022-09-23T04:53:01.094Z,12.72
2022-09-23T04:55:27.700Z,12.76
2022-09-23T04:57:54.903Z,12.77
2022-09-23T05:00:23.302Z,12.73
2022-09-23T05:02:50.681Z,12.74
2022-09-23T05:05:22.439Z,12.77
2022-09-23T05:07:49.236Z,12.79
2022-09-23T05:10:18.825Z,12.78
2022-09-23T05:12:45.522Z,12.85
2022-09-23T05:15:13.189Z,12.90
2022-09-23T05:17:39.769Z,12.77
2022-09-23T05:20:06.905Z,12.83
2022-09-23T05:22:33.468Z,12.89
2022-09-23T05:25:00.417Z,12.94
2022-09-23T05:27:27.054Z,12.89
2022-09-23T05:29:53.652Z,12.82
2022-09-23T05:32:20.909Z,12.82
2022-09-23T05:34:47.630Z,12.86
2022-09-23T05:37:19.343Z,12.65
2022-09-23T05:39:45.915Z,12.57
2022-09-23T05:42:12.644Z,12.72
2022-09-23T05:44:39.411Z,12.71
2022-09-23T05:47:06.191Z,12.56
2022-09-23T05:49:55.286Z,12.69
2022-09-23T05:52:19.462Z,12.53
2022-09-23T05:54:46.033Z,12.65
2022-09-23T05:57:12.784Z,12.70
2022-09-23T05:59:39.821Z,12.73
2022-09-23T06:02:06.597Z,12.79
2022-09-23T06:04:33.396Z,12.75
2022-09-23T06:07:03.349Z,12.86
2022-09-23T06:09:35.526Z,12.86
2022-09-23T06:12:03.342Z,12.95
2022-09-23T06:14:29.941Z,12.96
2022-09-23T06:16:56.553Z,12.93
2022-09-23T06:19:23.134Z,12.95
2022-09-23T06:21:49.801Z,13.04
2022-09-23T06:24:20.291Z,13.00
2022-09-23T06:26:49.168Z,12.93
2022-09-23T06:29:15.909Z,12.94
2022-09-23T06:31:43.550Z,13.07
2022-09-23T06:34:14.584Z,13.10
2022-09-23T06:36:46.100Z,13.20
2022-09-23T06:39:16.473Z,13.23
2022-09-23T06:41:44.079Z,13.25
2022-09-23T06:44:11.043Z,13.21
2022-09-23T06:46:37.734Z,13.21
2022-09-23T06:49:04.329Z,13.26
2022-09-23T06:51:30.864Z,13.33
2022-09-23T06:53:57.442Z,13.35
2022-09-23T06:56:24.859Z,13.43
2022-09-23T06:58:52.723Z,13.47
2022-09-23T07:01:20.012Z,13.40
2022-09-23T07:03:54.354Z,13.49
2022-09-23T07:06:26.939Z,13.60
2022-09-23T07:08:53.521Z,13.68
2022-09-23T07:11:22.610Z,13.71
2022-09-23T07:13:49.479Z,13.78
2022-09-23T07:16:16.159Z,13.79
2022-09-23T07:18:42.846Z,13.81
2022-09-23T07:21:14.280Z,13.91
2022-09-23T07:23:52.068Z,13.94
2022-09-23T07:26:19.780Z,13.94
2022-09-23T07:28:46.744Z,13.96
2022-09-23T07:31:17.592Z,13.99
2022-09-23T07:33:49.261Z,14.07
2022-09-23T07:36:18.322Z,13.99
2022-09-23T07:38:46.604Z,14.09
2022-09-23T07:41:18.142Z,14.16
2022-09-23T07:43:45.385Z,14.23
2022-09-23T07:46:16.905Z,14.25
2022-09-23T07:48:44.750Z,14.26
2022-09-23T07:51:20.489Z,14.24
2022-09-23T07:53:48.546Z,14.31
2022-09-23T07:56:15.918Z,14.40
2022-09-23T07:58:42.797Z,14.41
2022-09-23T08:01:14.497Z,14.40
2022-09-23T08:03:41.103Z,14.47
2022-09-23T08:06:09.773Z,14.51
2022-09-23T08:08:39.515Z,14.55
2022-09-23T08:11:08.548Z,14.63
2022-09-23T08:13:35.209Z,14.62
2022-09-23T08:16:02.127Z,14.65
2022-09-23T08:18:28.922Z,14.68
2022-09-23T08:20:55.504Z,14.72
2022-09-23T08:23:22.136Z,14.81
2022-09-23T08:25:48.888Z,14.95
2022-09-23T08:28:16.863Z,15.02
2022-09-23T08:30:44.629Z,15.05
2022-09-23T08:33:15.937Z,15.06
2022-09-23T08:35:44.087Z,14.88
2022-09-23T08:38:10.718Z,14.93
2022-09-23T08:40:39.948Z,14.97
2022-09-23T08:43:08.093Z,15.07
2022-09-23T08:45:36.825Z,14.98
2022-09-23T08:48:13.243Z,14.98
2022-09-23T08:51:06.775Z,14.98
2022-09-23T08:53:37.979Z,15.01
2022-09-23T08:56:13.811Z,15.02
2022-09-23T08:59:00.626Z,15.09
2022-09-23T09:01:30.315Z,15.11
2022-09-23T09:04:23.194Z,15.16
2022-09-23T09:07:07.687Z,15.20
2022-09-23T09:10:21.296Z,15.33
2022-09-23T09:12:50.674Z,15.40
2022-09-23T09:15:24.702Z,15.45
2022-09-23T09:18:20.045Z,15.53
2022-09-23T09:21:12.443Z,15.62
2022-09-23T09:23:55.367Z,15.70
2022-09-23T09:26:29.858Z,15.74
2022-09-23T09:29:35.764Z,15.85
2022-09-23T09:32:33.785Z,15.93
2022-09-23T09:35:07.964Z,15.96
2022-09-23T09:37:47.796Z,15.97
2022-09-23T09:40:17.231Z,16.07
2022-09-23T09:42:48.599Z,16.17
2022-09-23T09:45:27.370Z,16.12
2022-09-23T09:48:18.413Z,16.13
2022-09-23T09:50:50.365Z,16.18
2022-09-23T09:53:24.150Z,16.23
2022-09-23T09:56:08.342Z,16.24
2022-09-23T09:58:50.801Z,16.37
2022-09-23T10:01:21.484Z,16.52
2022-09-23T10:03:49.907Z,16.63
2022-09-23T10:06:26.077Z,16.69
2022-09-23T10:09:19.003Z,16.69
2022-09-23T10:12:17.675Z,16.78
2022-09-23T10:14:52.424Z,16.84
2022-09-23T10:17:27.944Z,16.99
2022-09-23T10:20:01.002Z,16.93
2022-09-23T10:22:32.199Z,17.00
2022-09-23T10:25:04.005Z,17.12
2022-09-23T10:27:34.691Z,17.21
2022-09-23T10:30:23.480Z,17.31
2022-09-23T10:32:51.751Z,17.29
2022-09-23T10:35:23.909Z,17.45
2022-09-23T10:37:55.221Z,17.45
2022-09-23T10:40:57.288Z,17.50
2022-09-23T10:44:03.801Z,17.67
2022-09-23T10:46:38.755Z,17.83
2022-09-23T10:49:14.352Z,17.82
2022-09-23T10:52:07.147Z,17.84
2022-09-23T10:55:07.837Z,17.94
2022-09-23T10:57:43.555Z,18.01
2022-09-23T11:00:10.565Z,18.14
2022-09-23T11:02:57.052Z,18.06
2022-09-23T11:05:36.119Z,18.28
2022-09-23T11:08:27.626Z,18.33
2022-09-23T11:11:11.557Z,18.64
2022-09-23T11:13:55.671Z,18.85
2022-09-23T11:16:25.335Z,18.59
2022-09-23T11:19:13.149Z,18.64
2022-09-23T11:21:49.444Z,18.88
2022-09-23T11:24:37.061Z,19.10
2022-09-23T11:27:26.145Z,19.13
2022-09-23T11:30:09.151Z,19.37
2022-09-23T11:33:07.289Z,19.46
2022-09-23T11:35:49.225Z,19.47
2022-09-23T11:38:26.098Z,19.58
2022-09-23T11:40:57.016Z,19.57
2022-09-23T11:43:29.393Z,19.35
2022-09-23T11:46:20.581Z,19.42
2022-09-23T11:49:08.265Z,19.26
2022-09-23T11:51:50.331Z,19.07
2022-09-23T11:54:21.413Z,19.01
2022-09-23T11:56:52.132Z,18.99
2022-09-23T11:59:39.293Z,19.11
2022-09-23T12:02:21.704Z,19.29
2022-09-23T12:04:58.607Z,19.39
2022-09-23T12:07:43.588Z,19.47
2022-09-23T12:10:11.094Z,19.37
2022-09-23T12:13:02.791Z,19.47
2022-09-23T12:15:41.738Z,19.47
2022-09-23T12:18:20.811Z,19.46
2022-09-23T12:21:04.763Z,19.52
2022-09-23T12:23:49.691Z,19.33
2022-09-23T12:26:20.746Z,19.34
2022-09-23T12:28:53.254Z,19.37
2022-09-23T12:31:22.513Z,19.25
2022-09-23T12:33:53.864Z,19.23
2022-09-23T12:36:30.539Z,19.18
2022-09-23T12:39:15.781Z,19.08
2022-09-23T12:41:58.599Z,19.04
2022-09-23T12:44:31.760Z,18.91
2022-09-23T12:47:29.007Z,18.86
2022-09-23T12:49:59.223Z,18.83
2022-09-23T12:52:30.990Z,18.79
2022-09-23T12:55:19.179Z,18.74
2022-09-23T12:57:46.032Z,18.81
2022-09-23T13:00:26.866Z,18.80
2022-09-23T13:03:18.453Z,18.80
2022-09-23T13:06:06.768Z,18.77
2022-09-23T13:08:37.533Z,18.83
2022-09-23T13:11:27.943Z,18.89
2022-09-23T13:13:56.457Z,18.82
2022-09-23T13:16:26.807Z,18.71
2022-09-23T13:18:57.978Z,18.65
2022-09-23T13:21:43.103Z,18.63
2022-09-23T13:24:25.114Z,18.62
2022-09-23T13:26:51.683Z,18.59
2022-09-23T13:29:28.237Z,18.63
2022-09-23T13:31:58.178Z,18.68
2022-09-23T13:34:31.766Z,18.72
2022-09-23T13:36:59.005Z,18.68
2022-09-23T13:39:27.655Z,18.68
2022-09-23T13:41:58.329Z,18.74
2022-09-23T13:44:25.013Z,18.72
2022-09-23T13:46:54.716Z,18.70
2022-09-23T13:49:27.015Z,18.73
2022-09-23T13:51:54.270Z,18.75
2022-09-23T13:54:29.009Z,18.74
2022-09-23T13:56:58.499Z,18.71
2022-09-23T13:59:38.631Z,18.71
2022-09-23T14:02:16.879Z,18.70
2022-09-23T14:04:44.212Z,18.71
2022-09-23T14:07:15.950Z,18.79
2022-09-23T14:09:51.442Z,18.76
2022-09-23T14:12:24.482Z,18.75
2022-09-23T14:14:52.013Z,18.77
2022-09-23T14:17:20.928Z,18.72
2022-09-23T14:19:49.451Z,18.67
2022-09-23T14:22:27.864Z,18.67
2022-09-23T14:24:55.917Z,18.64
2022-09-23T14:27:29.241Z,18.63
2022-09-23T14:29:56.255Z,18.58
2022-09-23T14:32:26.192Z,18.59
2022-09-23T14:35:06.727Z,18.52
2022-09-23T14:37:54.868Z,18.53
2022-09-23T14:40:26.421Z,18.51
2022-09-23T14:43:18.026Z,18.49
2022-09-23T14:45:47.469Z,18.53
2022-09-23T14:48:18.734Z,18.55
2022-09-23T14:50:51.410Z,18.48
2022-09-23T14:53:23.111Z,18.50
2022-09-23T14:56:10.388Z,18.51
2022-09-23T14:58:55.940Z,18.52
2022-09-23T15:01:32.254Z,18.52
2022-09-23T15:04:17.316Z,18.48
2022-09-23T15:06:51.407Z,18.42
2022-09-23T15:09:23.720Z,18.41
2022-09-23T15:11:57.770Z,18.40
2022-09-23T15:14:37.976Z,18.46
2022-09-23T15:17:11.667Z,18.43
2022-09-23T15:19:38.851Z,18.40
2022-09-23T15:22:07.944Z,18.42
2022-09-23T15:24:46.497Z,18.35
2022-09-23T15:27:33.548Z,18.35
2022-09-23T15:30:15.985Z,18.37
2022-09-23T15:32:44.387Z,18.34
2022-09-23T15:35:16.498Z,18.32
2022-09-23T15:37:44.423Z,18.29
2022-09-23T15:40:19.206Z,18.31
2022-09-23T15:42:51.293Z,18.32
2022-09-23T15:45:21.116Z,18.31
2022-09-23T15:47:49.158Z,18.25
2022-09-23T15:50:16.043Z,18.26
2022-09-23T15:52:45.118Z,18.24
2022-09-23T15:55:21.370Z,18.23
2022-09-23T15:57:48.540Z,18.15
2022-09-23T16:00:16.182Z,18.13
2022-09-23T16:02:44.859Z,18.16
2022-09-23T16:05:37.888Z,18.15
2022-09-23T16:08:09.748Z,18.12
2022-09-23T16:10:37.557Z,18.11
2022-09-23T16:13:07.988Z,18.14
2022-09-23T16:15:34.612Z,18.10
2022-09-23T16:18:01.625Z,18.13
2022-09-23T16:20:29.861Z,18.12
2022-09-23T16:22:59.696Z,18.17
2022-09-23T16:25:28.272Z,18.17
2022-09-23T16:27:56.322Z,18.17
2022-09-23T16:30:30.707Z,18.13
2022-09-23T16:32:57.386Z,18.09
2022-09-23T16:35:26.017Z,18.05
2022-09-23T16:37:53.071Z,18.04
2022-09-23T16:40:22.946Z,18.06
2022-09-23T16:42:52.461Z,18.02
2022-09-23T16:45:23.058Z,17.98
2022-09-23T16:47:51.312Z,17.93
2022-09-23T16:50:20.252Z,17.91
2022-09-23T16:52:47.076Z,17.89
2022-09-23T16:55:14.342Z,17.86
2022-09-23T16:57:41.693Z,17.83
2022-09-23T17:00:33.038Z,17.82
2022-09-23T17:03:19.428Z,17.82
2022-09-23T17:05:46.904Z,17.83
2022-09-23T17:08:14.633Z,17.77
2022-09-23T17:10:45.575Z,17.72
2022-09-23T17:13:15.710Z,17.71
2022-09-23T17:15:44.179Z,17.71
2022-09-23T17:18:10.901Z,17.70
2022-09-23T17:20:38.835Z,17.67
2022-09-23T17:23:06.097Z,17.69
2022-09-23T17:25:34.157Z,17.62
2022-09-23T17:28:00.980Z,17.61
2022-09-23T17:30:28.885Z,17.60
2022-09-23T17:32:55.495Z,17.59
2022-09-23T17:35:22.093Z,17.58
2022-09-23T17:37:48.697Z,17.58
2022-09-23T17:40:15.577Z,17.53
2022-09-23T17:42:42.332Z,17.52
2022-09-23T17:45:12.542Z,17.58
2022-09-23T17:47:41.727Z,17.57
2022-09-23T17:50:08.771Z,17.56
2022-09-23T17:52:35.353Z,17.59
2022-09-23T17:55:01.997Z,17.61
2022-09-23T17:57:28.672Z,17.58
2022-09-23T17:59:56.202Z,17.57
2022-09-23T18:02:23.089Z,17.54
2022-09-23T18:04:49.915Z,17.56
2022-09-23T18:07:16.604Z,17.54
2022-09-23T18:09:43.194Z,17.55
2022-09-23T18:12:09.874Z,17.55
2022-09-23T18:14:36.469Z,17.59
2022-09-23T18:17:03.071Z,17.56
2022-09-23T18:19:29.684Z,17.53
2022-09-23T18:21:57.370Z,17.46
2022-09-23T18:24:33.154Z,17.42
2022-09-23T18:27:00.904Z,17.36
2022-09-23T18:29:27.699Z,17.37
2022-09-23T18:31:54.421Z,17.36
2022-09-23T18:34:21.137Z,17.37
2022-09-23T18:36:48.037Z,17.33
2022-09-23T18:39:15.006Z,17.30
2022-09-23T18:41:41.627Z,17.28
2022-09-23T18:44:08.780Z,17.28
2022-09-23T18:46:35.916Z,17.31
2022-09-23T18:49:21.220Z,17.30
2022-09-23T18:51:54.716Z,17.30
2022-09-23T18:54:22.724Z,17.34
2022-09-23T18:56:50.164Z,17.39
2022-09-23T18:59:18.159Z,17.32
2022-09-23T19:01:46.037Z,17.31
2022-09-23T19:04:14.221Z,17.25
2022-09-23T19:06:41.008Z,17.22
2022-09-23T19:09:07.856Z,17.24
2022-09-23T19:11:36.373Z,17.21
2022-09-23T19:14:05.989Z,17.22
2022-09-23T19:16:33.577Z,17.21
2022-09-23T19:19:00.822Z,17.19
2022-09-23T19:21:28.544Z,17.17
2022-09-23T19:24:03.953Z,17.16
2022-09-23T19:26:36.841Z,17.20
2022-09-23T19:29:04.541Z,17.17
2022-09-23T19:31:33.554Z,17.17
2022-09-23T19:34:01.427Z,17.09
2022-09-23T19:36:35.377Z,17.10
2022-09-23T19:39:04.121Z,17.13
2022-09-23T19:41:32.296Z,17.12
2022-09-23T19:44:03.366Z,17.17
2022-09-23T19:46:31.221Z,17.18
2022-09-23T19:48:58.632Z,17.19
2022-09-23T19:51:25.384Z,17.12
2022-09-23T19:53:52.666Z,17.14
2022-09-23T19:56:20.034Z,17.13
2022-09-23T19:58:51.616Z,17.18
2022-09-23T20:01:18.563Z,17.13
2022-09-23T20:03:45.768Z,17.13
2022-09-23T20:06:12.475Z,17.08
2022-09-23T20:08:39.439Z,17.05
2022-09-23T20:11:28.773Z,17.00
2022-09-23T20:14:04.058Z,17.03
2022-09-23T20:16:33.160Z,17.07
2022-09-23T20:19:00.411Z,17.04
2022-09-23T20:21:28.450Z,17.04
2022-09-23T20:23:55.434Z,17.04
2022-09-23T20:26:40.782Z,17.07
2022-09-23T20:29:09.030Z,17.05
2022-09-23T20:31:36.026Z,17.10
2022-09-23T20:34:05.814Z,17.04
2022-09-23T20:36:33.291Z,17.06
2022-09-23T20:39:01.717Z,17.02
2022-09-23T20:41:37.695Z,17.05
2022-09-23T20:44:06.512Z,17.08
2022-09-23T20:46:33.310Z,17.18
2022-09-23T20:49:00.013Z,17.09
2022-09-23T20:51:26.789Z,17.07
2022-09-23T20:53:53.425Z,16.94
2022-09-23T20:56:21.537Z,16.76
2022-09-23T20:58:50.452Z,16.63
2022-09-23T21:01:17.867Z,16.56
2022-09-23T21:03:46.634Z,16.53
2022-09-23T21:06:16.946Z,16.49
2022-09-23T21:08:44.689Z,16.49
2022-09-23T21:11:15.060Z,16.50
2022-09-23T21:13:49.237Z,16.44
2022-09-23T21:16:17.820Z,16.38
2022-09-23T21:18:45.157Z,16.39
2022-09-23T21:21:14.170Z,16.38
2022-09-23T21:23:41.797Z,16.38
2022-09-23T21:26:11.035Z,16.34
2022-09-23T21:28:42.702Z,16.26
2022-09-23T21:31:11.801Z,16.08
2022-09-23T21:33:38.473Z,16.07
2022-09-23T21:36:06.655Z,16.07
2022-09-23T21:38:37.366Z,16.09
2022-09-23T21:41:06.723Z,16.16
2022-09-23T21:43:38.590Z,16.16
2022-09-23T21:46:07.951Z,16.18
2022-09-23T21:48:36.678Z,16.18
2022-09-23T21:51:05.642Z,16.16
2022-09-23T21:53:34.084Z,16.21
2022-09-23T21:56:11.815Z,16.33
2022-09-23T21:58:40.047Z,16.29
2022-09-23T22:01:26.896Z,16.26
2022-09-23T22:04:05.384Z,16.29
2022-09-23T22:06:32.234Z,16.29
2022-09-23T22:09:01.259Z,16.21
2022-09-23T22:11:51.137Z,16.21
2022-09-23T22:14:19.259Z,16.23
2022-09-23T22:16:45.961Z,16.23
2022-09-23T22:19:15.784Z,16.18
2022-09-23T22:21:45.346Z,16.14
2022-09-23T22:24:12.807Z,16.21
2022-09-23T22:26:44.177Z,16.21
2022-09-23T22:29:31.749Z,16.25
2022-09-23T22:32:20.930Z,16.24
2022-09-23T22:34:52.591Z,16.22
2022-09-23T22:37:21.913Z,16.22
2022-09-23T22:39:48.589Z,16.22
2022-09-23T22:42:15.198Z,16.13
2022-09-23T22:44:41.993Z,16.16
2022-09-23T22:47:09.564Z,16.18
2022-09-23T22:49:36.475Z,16.22
2022-09-23T22:52:05.780Z,16.18
2022-09-23T22:54:34.093Z,16.18
2022-09-23T22:57:03.358Z,16.15
2022-09-23T22:59:29.983Z,16.04
2022-09-23T23:01:57.315Z,16.04
2022-09-23T23:04:23.991Z,16.04
2022-09-23T23:06:51.014Z,16.08
2022-09-23T23:09:18.884Z,16.02
2022-09-23T23:11:45.875Z,16.03
2022-09-23T23:14:14.235Z,16.04
2022-09-23T23:16:42.148Z,16.07
2022-09-23T23:19:13.271Z,16.13
2022-09-23T23:21:43.406Z,16.15
2022-09-23T23:24:16.181Z,16.08
2022-09-23T23:26:43.256Z,16.07
2022-09-23T23:29:11.859Z,16.09
2022-09-23T23:31:38.504Z,16.16
2022-09-23T23:34:06.022Z,16.22
2022-09-23T23:36:32.665Z,16.24
2022-09-23T23:38:59.369Z,16.15
2022-09-23T23:41:26.014Z,16.12
2022-09-23T23:43:58.474Z,16.15
2022-09-23T23:46:26.609Z,16.17
2022-09-23T23:48:53.780Z,16.19
2022-09-23T23:51:20.959Z,16.12
2022-09-23T23:53:48.390Z,16.12
2022-09-23T23:56:17.213Z,16.00
2022-09-23T23:58:44.295Z,15.94
